Time;durP1;ratioP1;P1;durP2;ratioP2;P2;SDS_P1;SDS_P2;PMS_P1;PMS_P2;Temp;Humidity;BMP_temperature;BMP_pressure;BME280_temperature;BME280_humidity;BME280_pressure;Samples;Min_cycle;Max_cycle;Signal;HPM_P1;HPM_P2
2022/07/01 00:01:29;;;;;;;0.47;0.40;;;;;;;19.09;69.22;96689.19;10489636;28;20040;-24
2022/07/01 00:06:29;;;;;;;0.65;0.40;;;;;;;19.05;69.42;96672.28;10499050;28;20036;-25
2022/07/01 00:11:31;;;;;;;0.40;0.40;;;;;;;19.10;69.59;96698.50;10490204;28;20106;-23
2022/07/01 00:16:31;;;;;;;0.50;0.30;;;;;;;19.05;69.68;96697.66;10488908;28;20025;-24
2022/07/01 00:21:33;;;;;;;0.40;0.37;;;;;;;19.16;69.36;96721.34;10497607;28;20037;-25
2022/07/01 00:26:33;;;;;;;0.68;0.32;;;;;;;19.14;69.91;96731.47;10497349;28;20036;-22
2022/07/01 00:31:34;;;;;;;0.55;0.25;;;;;;;19.04;70.31;96717.13;10497589;28;20043;-23
2022/07/01 00:36:34;;;;;;;0.57;0.30;;;;;;;19.06;69.79;96727.25;10496269;28;20028;-25
2022/07/01 00:41:35;;;;;;;0.22;0.22;;;;;;;19.04;69.86;96728.94;10497587;28;20116;-25
2022/07/01 00:46:35;;;;;;;0.73;0.40;;;;;;;18.90;70.25;96720.50;10475573;28;20430;-24
2022/07/01 00:51:35;;;;;;;1.93;0.53;;;;;;;19.04;70.03;96744.19;10461709;28;20037;-24
2022/07/01 00:56:36;;;;;;;1.38;0.50;;;;;;;19.04;69.77;96736.56;10493811;28;20082;-25
2022/07/01 01:01:36;;;;;;;0.60;0.50;;;;;;;18.93;69.93;96721.34;10495675;28;20086;-24
2022/07/01 01:06:37;;;;;;;7.38;0.70;;;;;;;18.84;69.21;96711.22;10518268;28;20037;-24
2022/07/01 01:11:37;;;;;;;2.53;0.40;;;;;;;18.92;69.05;96713.78;10496390;28;20494;-24
2022/07/01 01:16:38;;;;;;;1.02;0.60;;;;;;;18.94;68.73;96729.81;10494469;28;20180;-24
2022/07/01 01:21:39;;;;;;;0.77;0.43;;;;;;;18.92;68.82;96734.88;10495296;28;20380;-24
2022/07/01 01:26:39;;;;;;;3.37;0.60;;;;;;;18.79;68.21;96735.78;10495057;28;20487;-25
2022/07/01 01:31:40;;;;;;;0.67;0.37;;;;;;;18.86;67.73;96731.53;10493972;28;20116;-25
2022/07/01 01:36:40;;;;;;;2.97;0.45;;;;;;;18.72;67.18;96735.75;10493514;28;20033;-25
2022/07/01 01:41:41;;;;;;;2.83;0.43;;;;;;;18.85;67.17;96724.78;10495186;28;20499;-24
2022/07/01 01:46:42;;;;;;;3.58;0.57;;;;;;;18.84;66.80;96744.19;10493173;28;20033;-28
2022/07/01 01:51:42;;;;;;;0.50;0.40;;;;;;;18.78;66.80;96740.84;10494035;28;20051;-25
2022/07/01 01:56:42;;;;;;;3.50;0.50;;;;;;;18.57;66.49;96723.94;10493840;28;20290;-25
2022/07/01 02:01:43;;;;;;;0.40;0.30;;;;;;;18.74;66.57;96734.09;10494076;28;20113;-23
2022/07/01 02:06:43;;;;;;;1.20;0.33;;;;;;;18.74;65.92;96736.63;10520900;28;20074;-24
2022/07/01 02:11:44;;;;;;;0.93;0.50;;;;;;;18.69;65.95;96738.31;10494598;28;20044;-24
2022/07/01 02:16:44;;;;;;;1.23;0.38;;;;;;;18.68;65.77;96739.16;10492071;28;20038;-23
2022/07/01 02:21:44;;;;;;;0.40;0.23;;;;;;;18.70;65.73;96738.31;10493041;28;20380;-24
2022/07/01 02:26:45;;;;;;;0.30;0.30;;;;;;;18.69;65.53;96751.00;10492881;28;20705;-23
2022/07/01 02:31:45;;;;;;;0.95;0.40;;;;;;;18.72;65.45;96763.66;10491920;28;20364;-24
2022/07/01 02:36:46;;;;;;;0.20;0.20;;;;;;;18.76;65.29;96760.28;10491886;28;20063;-23
2022/07/01 02:47:06;;;;;;;0.98;0.55;;;;;;;18.79;65.94;96818.63;10450733;28;20315;-26
2022/07/01 02:52:07;;;;;;;4.57;0.40;;;;;;;18.73;66.40;96839.75;10469646;28;20137;-24
2022/07/01 02:57:07;;;;;;;2.47;0.40;;;;;;;18.62;66.82;96841.44;10490694;28;20533;-25
2022/07/01 03:02:07;;;;;;;0.90;0.32;;;;;;;18.68;66.16;96848.22;10491773;28;20041;-23
2022/07/01 03:07:08;;;;;;;1.90;0.30;;;;;;;18.67;66.38;96854.13;10515369;28;20406;-25
2022/07/01 03:12:25;;;;;;;2.60;0.47;;;;;;;18.56;66.54;96821.13;10489869;28;20117;-25
2022/07/01 03:17:26;;;;;;;3.22;0.55;;;;;;;18.63;66.82;96843.13;10491347;28;20032;-24
2022/07/01 03:22:29;;;;;;;1.77;0.50;;;;;;;18.59;66.99;96835.50;10489636;28;20040;-25
2022/07/01 03:27:30;;;;;;;0.40;0.40;;;;;;;18.65;66.62;96835.50;10490405;28;20032;-24
2022/07/01 03:32:31;;;;;;;2.95;0.60;;;;;;;18.64;66.79;96821.13;10490979;28;20082;-23
2022/07/01 03:37:31;;;;;;;1.80;1.03;;;;;;;18.61;66.29;96833.81;10489888;28;20368;-22
2022/07/01 03:42:31;;;;;;;1.67;0.60;;;;;;;18.64;66.11;96836.34;10489578;28;20291;-23
2022/07/01 03:47:32;;;;;;;3.20;0.50;;;;;;;18.60;66.59;96835.50;10490854;28;20021;-24
2022/07/01 03:52:32;;;;;;;3.08;0.35;;;;;;;18.59;67.10;96840.59;10489225;28;20044;-23
2022/07/01 03:57:32;;;;;;;9.60;1.13;;;;;;;18.28;67.59;96864.13;10475433;28;20077;-25
2022/07/01 04:02:33;;;;;;;2.60;1.00;;;;;;;17.54;71.21;96868.00;10466063;28;20501;-24
2022/07/01 04:07:34;;;;;;;1.33;0.60;;;;;;;17.46;72.28;96877.25;10478518;28;20384;-22
2022/07/01 04:12:34;;;;;;;0.90;0.65;;;;;;;17.44;72.07;96889.03;10487992;28;20040;-24
2022/07/01 04:17:35;;;;;;;2.83;0.60;;;;;;;17.44;72.40;96879.78;10489816;28;20032;-23
2022/07/01 04:22:35;;;;;;;0.93;0.68;;;;;;;17.42;72.43;96866.25;10488327;28;20040;-25
2022/07/01 04:27:35;;;;;;;1.30;0.73;;;;;;;17.39;72.32;96855.25;10487934;28;20032;-23
2022/07/01 04:32:36;;;;;;;0.90;0.50;;;;;;;17.35;72.63;96839.19;10489805;28;20044;-24
2022/07/01 04:37:36;;;;;;;4.22;0.75;;;;;;;17.38;72.62;96823.19;10489000;28;20060;-22
2022/07/01 04:42:37;;;;;;;0.87;0.77;;;;;;;17.36;72.95;96819.81;10490213;28;20051;-23
2022/07/01 04:47:37;;;;;;;1.23;0.70;;;;;;;17.49;72.80;96791.22;10491987;28;20043;-23
2022/07/01 04:52:38;;;;;;;1.50;0.70;;;;;;;19.09;67.78;96799.16;10490545;28;20090;-23
2022/07/01 04:57:39;;;;;;;1.20;0.75;;;;;;;19.56;65.79;96837.16;10490891;28;20032;-22
2022/07/01 05:02:40;;;;;;;2.17;0.57;;;;;;;19.42;65.65;96874.47;10490388;28;20037;-22
2022/07/01 05:07:40;;;;;;;3.17;0.60;;;;;;;19.36;65.93;96884.63;10534259;28;20490;-23
2022/07/01 05:12:40;;;;;;;3.70;0.63;;;;;;;19.41;65.67;96893.09;10501362;28;20031;-23
2022/07/01 05:22:59;;;;;;;1.30;0.52;;;;;;;19.63;65.20;96894.72;10497957;28;20064;-23
2022/07/01 05:28:00;;;;;;;3.53;1.10;;;;;;;19.58;65.19;96902.34;10496590;28;20454;-23
2022/07/01 05:33:00;;;;;;;6.57;1.30;;;;;;;19.54;65.29;96879.50;10498181;28;20040;-23
2022/07/01 05:38:01;;;;;;;1.10;0.40;;;;;;;19.53;65.53;96867.66;10497963;28;20464;-24
2022/07/01 05:43:01;;;;;;;21.02;1.52;;;;;;;19.55;64.67;96865.97;10495088;28;20383;-22
2022/07/01 05:48:01;;;;;;;3.80;0.70;;;;;;;19.48;65.50;96887.13;10497690;28;20096;-22
2022/07/01 05:53:02;;;;;;;21.27;1.70;;;;;;;19.55;64.30;96868.50;10496100;28;20439;-23
2022/07/01 05:58:03;;;;;;;8.00;0.73;;;;;;;19.46;65.30;96853.28;10494674;28;20032;-23
2022/07/01 06:03:03;;;;;;;4.80;0.70;;;;;;;19.51;65.42;96869.38;10495816;28;20033;-23
2022/07/01 06:08:04;;;;;;;4.85;1.13;;;;;;;19.69;65.06;96869.31;10534611;28;20067;-24
2022/07/01 06:13:05;;;;;;;2.67;0.43;;;;;;;19.82;64.62;96884.53;10494893;28;20411;-22
2022/07/01 06:18:05;;;;;;;3.10;0.70;;;;;;;19.83;64.36;96895.56;10493950;28;20240;-22
2022/07/01 06:23:05;;;;;;;5.13;0.67;;;;;;;19.75;64.68;96905.72;10493011;28;20537;-22
2022/07/01 06:28:06;;;;;;;6.10;1.20;;;;;;;19.70;65.05;96921.81;10493320;28;20292;-22
2022/07/01 06:33:06;;;;;;;1.77;0.60;;;;;;;19.67;65.13;96898.97;10493430;28;20044;-25
2022/07/01 06:38:07;;;;;;;1.97;0.50;;;;;;;19.66;65.14;96895.56;10490756;28;20344;-22
2022/07/01 06:43:07;;;;;;;3.78;0.82;;;;;;;19.66;65.29;96879.50;10490190;28;20115;-24
2022/07/01 06:48:07;;;;;;;0.90;0.40;;;;;;;19.66;65.05;96882.88;10492664;28;20033;-24
2022/07/01 06:53:08;;;;;;;1.67;0.47;;;;;;;19.67;65.03;96898.97;10490360;28;20042;-22
2022/07/01 06:58:09;;;;;;;0.70;0.40;;;;;;;19.68;65.00;96898.13;10491537;28;20518;-22
2022/07/01 07:03:09;;;;;;;1.58;0.47;;;;;;;19.91;64.37;96904.00;10490296;28;20552;-23
2022/07/01 07:08:10;;;;;;;1.10;0.50;;;;;;;19.99;64.28;96898.03;10502226;28;20086;-23
2022/07/01 07:13:10;;;;;;;1.23;0.30;;;;;;;19.93;64.22;96881.97;10490770;28;20043;-24
2022/07/01 07:18:11;;;;;;;0.30;0.20;;;;;;;19.83;64.51;96893.84;10491831;28;20036;-22
2022/07/01 07:23:11;;;;;;;0.75;0.20;;;;;;;19.76;64.77;96891.34;10489782;28;20036;-22
2022/07/01 07:28:12;;;;;;;0.73;0.37;;;;;;;19.76;64.85;96914.19;10490051;28;20085;-23
2022/07/01 07:33:12;;;;;;;0.32;0.32;;;;;;;19.73;64.96;96926.88;10490207;28;20032;-23
2022/07/01 07:38:13;;;;;;;1.45;0.40;;;;;;;19.76;64.81;96942.97;10489848;28;20399;-22
2022/07/01 07:43:13;;;;;;;2.00;0.20;;;;;;;19.75;65.17;96943.81;10487792;28;20041;-22
2022/07/01 07:48:13;;;;;;;0.80;0.30;;;;;;;19.74;65.02;96943.81;10490482;28;20279;-23
2022/07/01 07:53:14;;;;;;;0.40;0.30;;;;;;;19.82;64.85;96952.28;10489047;28;20403;-22
2022/07/01 07:58:14;;;;;;;0.35;0.30;;;;;;;20.03;64.11;96952.25;10489063;28;20618;-23
2022/07/01 08:03:15;;;;;;;1.60;0.47;;;;;;;20.08;64.00;96946.31;10489644;28;20037;-23
2022/07/01 08:08:15;;;;;;;0.50;0.20;;;;;;;19.92;64.05;96943.81;10505967;28;20036;-24
2022/07/01 08:13:16;;;;;;;0.73;0.50;;;;;;;19.91;64.40;96962.44;10488500;28;20491;-22
2022/07/01 08:18:16;;;;;;;0.60;0.20;;;;;;;19.82;64.65;96947.19;10489709;28;20433;-23
2022/07/01 08:23:17;;;;;;;0.30;0.20;;;;;;;19.84;64.84;96955.69;10487508;28;20302;-22
2022/07/01 08:28:17;;;;;;;0.50;0.30;;;;;;;19.81;64.75;96971.78;10489260;28;20039;-22
2022/07/01 08:33:18;;;;;;;1.23;0.30;;;;;;;19.81;64.63;96960.75;10488759;28;20127;-22
2022/07/01 08:38:18;;;;;;;0.20;0.20;;;;;;;19.80;64.84;96969.22;10490031;28;20021;-23
2022/07/01 08:43:18;;;;;;;1.03;0.30;;;;;;;19.80;64.77;96969.22;10496827;28;20037;-23
2022/07/01 08:48:20;;;;;;;0.63;0.33;;;;;;;19.92;64.15;96964.13;10497570;28;20036;-22
2022/07/01 08:53:20;;;;;;;0.80;0.20;;;;;;;20.11;63.79;96970.91;10495588;28;20122;-23
2022/07/01 08:58:22;;;;;;;0.75;0.20;;;;;;;20.13;63.71;96961.56;10495834;28;20104;-23
2022/07/01 09:03:22;;;;;;;0.45;0.22;;;;;;;20.01;63.88;96969.19;10495904;28;20047;-22
2022/07/01 09:08:26;;;;;;;0.38;0.35;;;;;;;19.94;64.38;96975.97;10515075;28;20477;-22
2022/07/01 09:13:27;;;;;;;0.40;0.20;;;;;;;19.90;64.60;96968.34;10493937;28;20552;-24
2022/07/01 09:18:27;;;;;;;0.53;0.20;;;;;;;19.88;64.72;96972.59;10496237;28;20089;-22
2022/07/01 09:23:30;;;;;;;0.20;0.20;;;;;;;19.86;64.79;96969.22;10494231;28;20116;-21
2022/07/01 09:28:31;;;;;;;0.40;0.20;;;;;;;19.85;64.68;96965.00;10495298;28;20499;-24
2022/07/01 09:33:31;;;;;;;0.60;0.30;;;;;;;19.86;64.77;96969.22;10494756;28;20036;-24
2022/07/01 09:38:31;;;;;;;0.20;0.13;;;;;;;19.87;64.73;96968.38;10494914;28;20124;-22
2022/07/01 09:43:34;;;;;;;0.30;0.30;;;;;;;20.06;64.02;96967.50;10494027;28;20044;-23
2022/07/01 09:48:35;;;;;;;0.30;0.13;;;;;;;20.19;63.56;96964.09;10494962;28;20310;-22
2022/07/01 09:53:35;;;;;;;1.20;0.25;;;;;;;20.14;63.57;96966.66;10493087;28;20166;-22
2022/07/01 09:58:38;;;;;;;0.20;0.20;;;;;;;20.01;63.96;96970.03;10494036;28;20093;-22
2022/07/01 10:03:39;;;;;;;1.55;0.20;;;;;;;19.99;64.29;96981.03;10494858;28;20491;-24
2022/07/01 10:08:50;;;;;;;0.30;0.28;;;;;;;19.95;64.48;96999.69;10515983;28;20032;-22
2022/07/01 10:13:51;;;;;;;0.35;0.20;;;;;;;19.92;64.50;97004.78;10492193;28;20182;-24
2022/07/01 10:18:55;;;;;;;0.65;0.30;;;;;;;19.83;64.47;96997.19;10493440;28;20410;-23
2022/07/01 10:24:31;;;;;;;0.30;0.20;;;;;;;19.89;64.62;97008.19;10491981;28;20040;-22
2022/07/01 10:29:36;;;;;;;0.32;0.20;;;;;;;19.86;64.67;97020.03;10417620;28;20426;-21
2022/07/01 10:34:41;;;;;;;3.35;0.65;;;;;;;19.95;64.54;97030.19;10492983;28;20043;-23
2022/07/01 10:39:54;;;;;;;3.55;0.63;;;;;;;20.18;63.75;97034.44;10487865;28;20028;-23
2022/07/01 10:45:05;;;;;;;1.85;0.20;;;;;;;20.23;63.57;97031.88;10491165;28;20043;-23
2022/07/01 10:50:11;;;;;;;5.63;0.70;;;;;;;20.08;64.01;97029.38;10492476;28;20032;-22
2022/07/01 10:55:11;;;;;;;4.15;0.60;;;;;;;19.96;64.12;97016.63;10491166;28;20044;-22
2022/07/01 11:00:14;;;;;;;7.60;0.40;;;;;;;19.97;64.60;97034.44;10490902;28;20057;-22
2022/07/01 11:05:15;;;;;;;3.10;0.38;;;;;;;19.95;64.48;97048.00;10505810;28;20331;-22
2022/07/01 11:10:18;;;;;;;1.75;0.28;;;;;;;19.92;64.62;97046.28;10492269;28;20048;-23
2022/07/01 11:15:18;;;;;;;1.45;0.25;;;;;;;19.92;64.73;97043.75;10488141;28;20036;-25
2022/07/01 11:20:26;;;;;;;3.55;0.30;;;;;;;19.93;64.54;97036.97;10488477;28;20037;-22
2022/07/01 11:25:27;;;;;;;4.35;0.30;;;;;;;19.86;65.05;97031.03;10449759;28;20392;-24
2022/07/01 11:30:27;;;;;;;7.68;0.90;;;;;;;20.11;64.70;97039.53;10478365;28;20024;-24
2022/07/01 11:40:50;;;;;;;2.15;0.45;;;;;;;20.26;63.68;97042.06;10479570;28;20612;-24
2022/07/01 11:45:52;;;;;;;2.35;0.30;;;;;;;20.11;64.16;97037.81;10488371;28;20157;-22
2022/07/01 11:50:52;;;;;;;1.02;0.40;;;;;;;20.04;64.35;97035.25;10490447;28;20465;-22
2022/07/01 11:55:53;;;;;;;0.63;0.30;;;;;;;19.99;64.28;97034.41;10488573;28;20040;-22
2022/07/01 12:00:53;;;;;;;0.52;0.30;;;;;;;19.97;64.54;97028.50;10489788;28;20036;-22
2022/07/01 12:05:53;;;;;;;0.30;0.20;;;;;;;19.97;64.70;97031.03;10497722;28;20099;-23
2022/07/01 12:10:57;;;;;;;0.20;0.20;;;;;;;19.95;64.67;97035.28;10490659;28;20037;-22
2022/07/01 12:16:09;;;;;;;4.72;0.40;;;;;;;19.97;64.46;97029.34;10496634;28;20294;-23
2022/07/01 12:21:09;;;;;;;1.38;0.40;;;;;;;19.95;64.71;97017.50;10498105;28;20055;-22
2022/07/01 12:26:10;;;;;;;3.13;0.50;;;;;;;20.19;64.10;97004.78;10497974;28;20505;-21
2022/07/01 12:31:10;;;;;;;2.70;0.53;;;;;;;20.30;63.75;97019.16;10493882;28;20111;-22
2022/07/01 12:36:12;;;;;;;1.25;0.22;;;;;;;20.24;63.76;97018.31;10493243;28;20044;-22
2022/07/01 12:41:30;;;;;;;1.52;0.30;;;;;;;20.05;64.00;97007.34;10488792;28;20060;-22
2022/07/01 12:46:31;;;;;;;4.15;0.28;;;;;;;20.05;64.32;97011.56;10477607;28;20503;-22
2022/07/01 12:51:32;;;;;;;3.28;0.35;;;;;;;20.01;64.32;97004.78;10487025;28;20509;-24
2022/07/01 12:56:32;;;;;;;4.50;0.65;;;;;;;20.02;64.50;97006.47;10487892;28;20035;-25
2022/07/01 13:01:33;;;;;;;3.40;0.30;;;;;;;20.01;64.67;97009.88;10444332;28;20068;-23
2022/07/01 13:06:33;;;;;;;2.00;0.40;;;;;;;19.99;64.50;97004.78;10408862;28;20354;-23
2022/07/01 13:11:34;;;;;;;7.60;0.50;;;;;;;19.98;64.64;97007.31;10399111;28;20066;-21
2022/07/01 13:16:35;;;;;;;1.48;0.30;;;;;;;20.01;64.52;96995.44;10391843;28;20025;-23
2022/07/01 13:21:35;;;;;;;2.05;0.30;;;;;;;20.26;61.42;96991.22;10387766;28;20029;-25
2022/07/01 13:26:39;;;;;;;2.30;0.50;;;;;;;20.36;62.01;96990.31;10395201;28;20051;-23
2022/07/01 13:31:39;;;;;;;1.13;0.17;;;;;;;20.24;63.05;96998.81;10400751;28;20083;-23
2022/07/01 13:36:39;;;;;;;1.30;0.23;;;;;;;20.14;63.64;96992.06;10410028;28;20052;-21
2022/07/01 13:41:40;;;;;;;3.73;0.33;;;;;;;20.13;63.72;97002.25;10403817;28;20044;-23
2022/07/01 13:46:40;;;;;;;1.23;0.30;;;;;;;20.08;63.71;97007.34;10390789;28;20029;-22
2022/07/01 13:51:41;;;;;;;0.60;0.20;;;;;;;20.04;63.85;97014.94;10399983;28;20499;-22
2022/07/01 13:56:42;;;;;;;0.20;0.20;;;;;;;20.05;64.09;97011.56;10392920;28;20025;-24
2022/07/01 14:01:43;;;;;;;1.50;0.10;;;;;;;20.01;64.08;97004.78;10401913;28;20045;-22
2022/07/01 14:06:43;;;;;;;5.28;1.83;;;;;;;20.01;64.43;97004.78;10395060;28;20046;-22
2022/07/01 14:11:45;;;;;;;4.30;0.43;;;;;;;20.05;63.78;96998.88;10394468;28;20090;-22
2022/07/01 14:16:46;;;;;;;0.20;0.20;;;;;;;20.32;63.58;97002.19;10398558;28;20060;-23
2022/07/01 14:21:46;;;;;;;2.42;0.40;;;;;;;20.37;63.54;97014.91;10399911;28;20111;-24
2022/07/01 14:26:47;;;;;;;2.20;0.30;;;;;;;20.21;63.72;97014.09;10397549;28;20064;-21
2022/07/01 14:31:47;;;;;;;0.68;0.25;;;;;;;20.16;64.08;97002.22;10395003;28;20488;-22
2022/07/01 14:36:48;;;;;;;2.13;0.20;;;;;;;20.11;64.27;97004.78;10393456;28;20033;-23
2022/07/01 14:41:50;;;;;;;2.47;0.43;;;;;;;20.08;64.56;97006.50;10394572;28;20044;-22
2022/07/01 14:46:51;;;;;;;2.08;0.63;;;;;;;20.07;64.45;97004.78;10390106;28;20038;-24
2022/07/01 14:51:52;;;;;;;6.13;0.80;;;;;;;20.02;64.46;97002.22;10394418;28;20412;-24
2022/07/01 14:56:52;;;;;;;2.90;0.30;;;;;;;20.03;64.50;97003.06;10391672;28;20476;-22
2022/07/01 15:01:54;;;;;;;0.67;0.20;;;;;;;20.04;64.38;97000.56;10395885;28;20056;-23
2022/07/01 15:06:55;;;;;;;1.48;0.50;;;;;;;20.18;64.22;97003.91;10392829;28;20832;-22
2022/07/01 15:11:55;;;;;;;0.93;0.40;;;;;;;20.37;63.94;96994.56;10390989;28;20091;-24
2022/07/01 15:16:57;;;;;;;3.60;0.93;;;;;;;20.39;63.31;97009.78;10395532;28;20029;-22
2022/07/01 15:21:58;;;;;;;1.02;0.38;;;;;;;20.26;63.71;97016.63;10389920;28;20046;-22
2022/07/01 15:26:58;;;;;;;1.80;0.35;;;;;;;20.14;64.15;97019.19;10382945;28;20038;-24
2022/07/01 15:31:59;;;;;;;0.30;0.20;;;;;;;20.11;64.20;97017.47;10390661;28;20114;-25
2022/07/01 15:37:01;;;;;;;0.20;0.10;;;;;;;20.10;64.37;97014.97;10391176;28;20026;-23
2022/07/01 15:42:02;;;;;;;0.20;0.20;;;;;;;20.08;64.42;97009.88;10389079;28;20444;-22
2022/07/01 15:52:22;;;;;;;0.98;0.40;;;;;;;20.09;64.41;97003.13;10382028;28;20033;-22
2022/07/01 15:57:22;;;;;;;1.58;0.50;;;;;;;20.07;64.51;97014.94;10386675;28;20037;-22
2022/07/01 16:02:24;;;;;;;1.35;0.30;;;;;;;20.30;63.72;97018.31;10385586;28;20053;-22
2022/07/01 16:07:25;;;;;;;0.63;0.30;;;;;;;20.42;64.06;97007.25;10385120;28;20037;-23
2022/07/01 16:12:26;;;;;;;1.10;0.30;;;;;;;20.37;63.67;97015.75;10378527;28;20034;-23
2022/07/01 16:17:31;;;;;;;3.15;0.50;;;;;;;20.26;63.97;97026.81;10384425;28;20049;-24
2022/07/01 16:22:37;;;;;;;1.77;0.50;;;;;;;20.18;64.50;97015.81;10392874;28;20033;-22
2022/07/01 16:27:38;;;;;;;2.70;0.30;;;;;;;20.15;64.35;97008.16;10387274;28;20043;-23
2022/07/01 16:32:44;;;;;;;2.00;0.40;;;;;;;20.13;64.56;97014.94;10390402;28;20414;-23
2022/07/01 16:37:53;;;;;;;1.52;0.50;;;;;;;20.10;64.55;97009.88;10392469;28;20072;-20
2022/07/01 16:42:53;;;;;;;4.80;0.65;;;;;;;20.28;64.07;97015.75;10387607;28;20081;-23
2022/07/01 16:47:55;;;;;;;2.83;0.70;;;;;;;20.44;63.94;97020.81;10388593;28;20033;-22
2022/07/01 16:52:56;;;;;;;0.95;0.30;;;;;;;20.42;63.26;97023.38;10393945;28;20025;-21
2022/07/01 16:58:05;;;;;;;1.10;0.40;;;;;;;20.28;63.94;97022.56;10393879;28;20037;-23
2022/07/01 17:03:06;;;;;;;1.13;0.30;;;;;;;20.20;64.13;97026.81;10398714;28;20484;-22
2022/07/01 17:08:08;;;;;;;1.38;0.20;;;;;;;20.15;64.24;97026.81;10396253;28;20080;-22
2022/07/01 17:13:10;;;;;;;1.95;0.22;;;;;;;20.15;64.41;97028.50;10397318;28;20385;-22
2022/07/01 17:18:10;;;;;;;0.52;0.20;;;;;;;20.13;64.46;97036.16;10398465;28;20041;-23
2022/07/01 17:23:23;;;;;;;0.17;0.10;;;;;;;20.12;64.29;97039.53;10396881;28;20030;-23
2022/07/01 17:28:42;;;;;;;1.38;0.20;;;;;;;20.12;64.31;97043.75;10397187;28;20697;-22
2022/07/01 17:33:44;;;;;;;1.15;0.25;;;;;;;20.14;64.33;97045.47;10392238;28;20042;-24
2022/07/01 17:38:51;;;;;;;1.65;0.60;;;;;;;20.38;63.68;97058.13;10401910;28;20129;-22
2022/07/01 17:44:00;;;;;;;0.70;0.38;;;;;;;20.42;63.29;97050.50;10390004;28;20178;-22
2022/07/01 17:49:05;;;;;;;0.40;0.20;;;;;;;20.37;63.39;97075.94;10398819;28;20025;-22
2022/07/01 17:54:06;;;;;;;0.40;0.35;;;;;;;20.20;64.09;97059.84;10400385;28;20039;-22
2022/07/01 17:59:06;;;;;;;0.50;0.20;;;;;;;20.22;63.98;97075.94;10394144;28;20025;-22
2022/07/01 18:04:08;;;;;;;0.73;0.37;;;;;;;20.17;64.30;97073.41;10399465;28;20037;-22
2022/07/01 18:09:08;;;;;;;0.30;0.20;;;;;;;20.16;64.28;97065.78;10394271;28;20041;-22
2022/07/01 18:14:26;;;;;;;0.37;0.10;;;;;;;20.13;64.25;97070.88;10393561;28;20510;-22
2022/07/01 18:19:57;;;;;;;0.30;0.30;;;;;;;19.99;64.34;97049.66;10394888;28;20033;-21
2022/07/01 18:25:00;;;;;;;0.57;0.20;;;;;;;20.12;64.32;97079.34;10391582;28;20108;-22
2022/07/01 18:30:04;;;;;;;1.50;0.30;;;;;;;20.18;64.00;97074.28;10392376;28;20037;-22
2022/07/01 18:35:12;;;;;;;1.45;0.45;;;;;;;20.21;63.21;97036.97;10390970;28;20041;-22
2022/07/01 18:40:14;;;;;;;0.38;0.32;;;;;;;20.50;63.09;97070.81;10391729;28;20034;-22
2022/07/01 18:45:15;;;;;;;1.65;0.20;;;;;;;20.37;63.54;97076.78;10393443;28;20029;-24
2022/07/01 18:50:16;;;;;;;0.20;0.20;;;;;;;20.27;63.95;97087.81;10398394;28;20407;-23
2022/07/01 18:55:17;;;;;;;0.30;0.30;;;;;;;20.17;63.97;97082.75;10391564;28;20040;-23
2022/07/01 19:00:24;;;;;;;0.35;0.10;;;;;;;20.17;64.01;97085.28;10385452;28;20762;-23
2022/07/01 19:05:25;;;;;;;0.28;0.10;;;;;;;20.15;64.30;97098.00;10397026;28;20033;-24
2022/07/01 19:10:25;;;;;;;0.27;0.20;;;;;;;20.13;64.33;97107.31;10397734;28;20018;-24
2022/07/01 19:15:25;;;;;;;0.20;0.20;;;;;;;20.12;64.45;97109.84;10393973;28;20288;-22
2022/07/01 19:20:26;;;;;;;1.50;0.10;;;;;;;20.11;64.36;97116.63;10391847;28;20288;-24
2022/07/01 19:25:26;;;;;;;0.10;0.10;;;;;;;20.10;64.45;97125.09;10382602;28;20030;-23
2022/07/01 19:30:27;;;;;;;3.03;0.50;;;;;;;20.36;63.88;97140.38;10392103;28;20026;-22
2022/07/01 19:35:28;;;;;;;0.47;0.38;;;;;;;20.48;63.89;97136.94;10379308;28;20030;-22
2022/07/01 19:40:29;;;;;;;0.30;0.22;;;;;;;20.42;63.47;97142.06;10394957;28;20200;-22
2022/07/01 19:45:29;;;;;;;0.43;0.43;;;;;;;20.31;63.64;97149.69;10385825;28;20045;-23
2022/07/01 19:50:30;;;;;;;0.20;0.10;;;;;;;20.23;64.13;97136.97;10392870;28;20024;-23
2022/07/01 19:55:30;;;;;;;0.20;0.20;;;;;;;20.18;64.28;97150.53;10395708;28;20035;-22
2022/07/01 20:00:31;;;;;;;0.50;0.40;;;;;;;20.16;64.25;97157.28;10390261;28;20059;-21
2022/07/01 20:05:31;;;;;;;0.70;0.20;;;;;;;20.14;64.22;97162.41;10398628;28;20114;-26
2022/07/01 20:10:33;;;;;;;0.67;0.20;;;;;;;20.13;64.29;97173.44;10383802;28;20121;-22
2022/07/01 20:15:33;;;;;;;1.75;0.30;;;;;;;20.13;64.46;97183.59;10397368;28;20291;-24
2022/07/01 20:20:34;;;;;;;0.35;0.20;;;;;;;20.12;64.49;97187.00;10395686;28;20045;-23
2022/07/01 20:25:34;;;;;;;0.80;0.80;;;;;;;20.37;64.05;97192.91;10390176;28;20041;-23
2022/07/01 20:30:35;;;;;;;1.10;0.40;;;;;;;20.49;63.43;97192.09;10396931;28;20033;-23
2022/07/01 20:35:35;;;;;;;0.17;0.17;;;;;;;20.40;63.53;97204.78;10392464;28;20091;-23
2022/07/01 20:40:36;;;;;;;0.67;0.30;;;;;;;20.30;63.86;97201.38;10401124;28;20280;-22
2022/07/01 20:45:36;;;;;;;0.20;0.20;;;;;;;20.22;64.01;97208.16;10400551;28;20363;-22
2022/07/01 20:50:36;;;;;;;0.20;0.20;;;;;;;20.17;64.31;97205.63;10407350;28;20647;-22
2022/07/01 20:55:37;;;;;;;1.00;0.30;;;;;;;20.16;64.36;97208.16;10399506;28;20034;-22
2022/07/01 21:00:37;;;;;;;0.20;0.17;;;;;;;20.15;64.43;97209.00;10401895;28;20292;-23
2022/07/01 21:05:37;;;;;;;0.20;0.20;;;;;;;20.12;64.47;97206.47;10399943;28;20033;-24
2022/07/01 21:10:38;;;;;;;0.50;0.30;;;;;;;20.11;64.24;97215.78;10399394;28;20103;-24
2022/07/01 21:15:38;;;;;;;0.10;0.10;;;;;;;20.04;64.60;97198.84;10397755;28;20029;-22
2022/07/01 21:20:39;;;;;;;2.15;0.40;;;;;;;20.28;63.80;97219.19;10403232;28;20695;-23
2022/07/01 21:25:39;;;;;;;0.60;0.27;;;;;;;20.45;63.29;97222.59;10403645;28;20542;-23
2022/07/01 21:30:40;;;;;;;0.10;0.10;;;;;;;20.44;63.19;97231.91;10408839;28;20108;-22
2022/07/01 21:35:40;;;;;;;0.20;0.20;;;;;;;20.31;63.62;97223.44;10402412;28;20053;-22
2022/07/01 21:40:40;;;;;;;0.30;0.20;;;;;;;20.23;63.95;97230.19;10402728;28;20034;-23
2022/07/01 21:45:42;;;;;;;0.47;0.30;;;;;;;20.17;64.06;97236.13;10400867;28;20351;-23
2022/07/01 21:50:43;;;;;;;0.22;0.17;;;;;;;20.16;64.54;97231.03;10399717;28;20396;-23
2022/07/01 21:55:46;;;;;;;1.40;0.15;;;;;;;20.15;64.23;97231.88;10396275;28;20044;-22
2022/07/01 22:00:47;;;;;;;0.30;0.17;;;;;;;20.14;64.32;97235.28;10393741;28;20574;-22
2022/07/01 22:11:07;;;;;;;0.20;0.20;;;;;;;20.14;64.34;97230.19;10395875;28;20492;-23
2022/07/01 22:16:08;;;;;;;0.87;0.40;;;;;;;20.24;63.80;97235.28;10390591;28;20048;-22
2022/07/01 22:21:11;;;;;;;0.43;0.30;;;;;;;20.44;63.03;97234.47;10394809;28;20665;-24
2022/07/01 22:26:13;;;;;;;2.40;0.17;;;;;;;20.48;63.13;97231.06;10389688;28;20030;-22
2022/07/01 22:31:16;;;;;;;0.38;0.28;;;;;;;20.34;63.46;97236.16;10392639;28;20495;-23
2022/07/01 22:36:17;;;;;;;0.45;0.20;;;;;;;20.25;63.77;97234.44;10394367;28;20427;-24
2022/07/01 22:41:18;;;;;;;0.20;0.20;;;;;;;20.21;63.88;97234.44;10395836;28;20146;-23
2022/07/01 22:46:27;;;;;;;0.87;0.20;;;;;;;20.18;64.27;97237.00;10391274;28;20120;-22
2022/07/01 22:51:36;;;;;;;0.20;0.20;;;;;;;20.15;64.23;97236.97;10399643;28;20048;-23
2022/07/01 22:56:37;;;;;;;0.13;0.13;;;;;;;20.14;64.53;97236.13;10404980;28;20033;-22
2022/07/01 23:01:41;;;;;;;1.15;0.20;;;;;;;20.16;64.08;97238.66;10399720;28;20042;-23
2022/07/01 23:07:00;;;;;;;0.30;0.13;;;;;;;20.15;64.28;97242.03;10390949;28;20038;-24
2022/07/01 23:12:05;;;;;;;0.90;0.60;;;;;;;20.25;63.82;97243.78;10388112;28;20042;-24
2022/07/01 23:17:05;;;;;;;0.47;0.38;;;;;;;20.43;62.51;97245.50;10390598;28;20064;-24
2022/07/01 23:22:08;;;;;;;0.97;0.30;;;;;;;20.42;63.01;97231.94;10388795;28;20448;-23
2022/07/01 23:27:12;;;;;;;2.08;0.47;;;;;;;20.34;63.34;97248.88;10393554;28;20762;-23
2022/07/01 23:32:12;;;;;;;1.88;0.20;;;;;;;20.26;63.90;97248.00;10392127;28;20137;-22
2022/07/01 23:37:14;;;;;;;1.70;0.20;;;;;;;20.21;63.80;97245.47;10394353;28;20040;-22
2022/07/01 23:42:15;;;;;;;0.10;0.10;;;;;;;20.18;64.29;97249.69;10391257;28;20083;-23
2022/07/01 23:47:15;;;;;;;0.20;0.20;;;;;;;20.16;64.19;97254.78;10397776;28;20026;-23